Time;durP1;ratioP1;P1;durP2;ratioP2;P2;SDS_P1;SDS_P2;PMS_P1;PMS_P2;Temp;Humidity;BMP_temperature;BMP_pressure;BME280_temperature;BME280_humidity;BME280_pressure;Samples;Min_cycle;Max_cycle;Signal;HPM_P1;HPM_P2
2024/01/04 00:00:18;;;;;;;4.70;0.90;;;;;;;7.62;100.00;148075.69;5024117;28;20231;-60
2024/01/04 00:02:45;;;;;;;4.47;0.70;;;;;;;7.61;100.00;148071.94;5023915;28;20228;-59
2024/01/04 00:05:11;;;;;;;6.13;0.90;;;;;;;7.61;100.00;148071.94;5021819;28;20688;-59
2024/01/04 00:07:38;;;;;;;4.73;1.00;;;;;;;7.56;100.00;148060.78;5023235;28;20718;-59
2024/01/04 00:10:06;;;;;;;5.13;0.80;;;;;;;7.56;100.00;148060.78;5021079;28;20224;-59
2024/01/04 00:12:33;;;;;;;2.47;0.50;;;;;;;7.51;100.00;148049.56;5023928;28;20985;-59
2024/01/04 00:15:03;;;;;;;4.53;0.87;;;;;;;7.50;100.00;148045.84;5020553;28;20225;-60
2024/01/04 00:17:31;;;;;;;7.33;1.00;;;;;;;7.46;100.00;148035.91;5023455;28;20228;-60
2024/01/04 00:19:58;;;;;;;1.80;0.70;;;;;;;7.52;100.00;148052.03;5020515;28;20583;-59
2024/01/04 00:22:24;;;;;;;3.10;1.00;;;;;;;7.45;100.00;148033.41;5023297;28;20702;-59
2024/01/04 00:24:51;;;;;;;7.53;0.90;;;;;;;7.50;100.00;148045.84;5016802;28;20718;-59
2024/01/04 00:27:18;;;;;;;9.50;0.90;;;;;;;7.47;100.00;148039.63;5024664;28;20231;-60
2024/01/04 00:29:44;;;;;;;5.73;0.80;;;;;;;7.45;100.00;148033.41;5020751;28;20231;-60
2024/01/04 00:32:11;;;;;;;5.77;1.20;;;;;;;7.31;100.00;147999.88;5011044;28;20242;-59
2024/01/04 00:34:39;;;;;;;3.37;1.00;;;;;;;7.26;100.00;147987.47;5006942;28;20239;-59
2024/01/04 00:37:06;;;;;;;4.67;0.83;;;;;;;7.22;100.00;147980.00;4995137;28;20238;-60
2024/01/04 00:39:32;;;;;;;7.03;1.20;;;;;;;7.21;100.00;147977.53;5005835;28;20232;-59
2024/01/04 00:41:59;;;;;;;4.50;1.13;;;;;;;7.24;100.00;147983.72;5020045;28;20224;-59
2024/01/04 00:44:26;;;;;;;2.17;0.97;;;;;;;7.20;100.00;147973.78;5021802;28;20258;-59
2024/01/04 00:46:52;;;;;;;11.30;1.40;;;;;;;7.20;100.00;147973.78;5017717;28;20227;-59
2024/01/04 00:49:19;;;;;;;3.97;0.67;;;;;;;7.25;100.00;147986.19;5024229;28;20223;-59
2024/01/04 00:51:47;;;;;;;8.50;2.90;;;;;;;7.22;100.00;147978.75;5019341;28;20327;-59
2024/01/04 00:54:14;;;;;;;5.70;1.33;;;;;;;7.18;100.00;147968.78;5002183;28;20219;-60
2024/01/04 00:56:41;;;;;;;4.47;0.73;;;;;;;7.26;100.00;147987.47;5005076;28;20224;-59
2024/01/04 00:59:07;;;;;;;6.53;0.73;;;;;;;7.31;100.00;147999.88;5020291;28;20254;-59
2024/01/04 01:01:34;;;;;;;4.90;0.80;;;;;;;7.37;100.00;148016.03;5005596;28;20839;-60
2024/01/04 01:04:00;;;;;;;3.17;0.80;;;;;;;7.45;100.00;148033.41;5018435;28;20239;-60
2024/01/04 01:06:27;;;;;;;5.73;0.70;;;;;;;7.41;100.00;148023.47;5005964;28;20244;-59
2024/01/04 01:08:55;;;;;;;5.73;0.73;;;;;;;7.42;100.00;148025.97;5020155;28;20223;-58
2024/01/04 01:11:22;;;;;;;7.17;1.83;;;;;;;7.13;100.00;147957.63;5023162;28;20235;-59
2024/01/04 01:13:48;;;;;;;5.60;1.40;;;;;;;6.96;100.00;147915.38;5003678;28;20670;-59
2024/01/04 01:16:15;;;;;;;4.27;1.17;;;;;;;6.83;100.00;147885.56;5005879;28;20242;-59
2024/01/04 01:18:42;;;;;;;0.73;0.33;;;;;;;6.77;100.00;147871.94;5021478;28;20242;-60
2024/01/04 01:21:08;;;;;;;2.20;0.33;;;;;;;6.75;100.00;147865.69;5002838;28;20244;-59
2024/01/04 01:23:35;;;;;;;2.40;0.60;;;;;;;6.70;100.00;147854.53;5007913;28;20231;-60
2024/01/04 01:26:03;;;;;;;1.93;0.30;;;;;;;6.69;100.00;147852.03;4990244;28;20226;-58
2024/01/04 01:28:30;;;;;;;0.93;0.73;;;;;;;6.65;100.00;147842.09;5019639;28;20227;-59
2024/01/04 01:30:57;;;;;;;1.47;0.40;;;;;;;6.61;100.00;147832.16;5007421;28;20220;-59
2024/01/04 01:33:24;;;;;;;4.40;0.50;;;;;;;6.63;100.00;147837.13;5003729;28;20254;-59
2024/01/04 01:35:51;;;;;;;1.83;0.23;;;;;;;6.59;100.00;147827.19;5012602;28;20277;-59
2024/01/04 01:38:18;;;;;;;4.47;0.43;;;;;;;6.55;100.00;147817.25;5021225;28;20224;-59
2024/01/04 01:40:45;;;;;;;1.47;0.40;;;;;;;6.51;100.00;147808.53;5002839;28;20308;-59
2024/01/04 01:43:13;;;;;;;4.00;0.47;;;;;;;6.52;100.00;147811.03;5018401;28;20245;-59
2024/01/04 01:45:40;;;;;;;2.20;0.30;;;;;;;6.51;100.00;147808.53;5005737;28;20311;-59
2024/01/04 01:48:08;;;;;;;1.43;0.30;;;;;;;6.47;100.00;147799.88;5017253;28;20274;-59
2024/01/04 01:50:35;;;;;;;2.47;0.40;;;;;;;6.56;100.00;147820.97;5004357;28;20220;-59
2024/01/04 01:53:02;;;;;;;2.63;0.40;;;;;;;6.54;100.00;147816.00;5016641;28;20765;-58
2024/01/04 01:55:29;;;;;;;3.43;0.40;;;;;;;6.57;100.00;147823.47;5005579;28;20220;-59
2024/01/04 01:57:56;;;;;;;6.33;0.70;;;;;;;6.56;100.00;147820.97;5002447;28;20231;-59
2024/01/04 02:00:24;;;;;;;4.20;0.70;;;;;;;6.66;100.00;147844.59;5021079;28;20235;-59
2024/01/04 02:02:51;;;;;;;5.30;0.73;;;;;;;6.76;100.00;147868.16;5020163;28;20243;-59
2024/01/04 02:05:18;;;;;;;5.93;0.60;;;;;;;6.79;100.00;147876.91;5021161;28;20236;-59
2024/01/04 02:07:45;;;;;;;5.80;0.60;;;;;;;6.79;100.00;147876.91;5020230;28;20695;-59
2024/01/04 02:10:12;;;;;;;2.73;0.60;;;;;;;6.77;100.00;147870.66;5019390;28;20231;-58
2024/01/04 02:12:39;;;;;;;3.07;0.50;;;;;;;6.81;100.00;147880.59;5021720;28;20279;-60
2024/01/04 02:15:07;;;;;;;2.63;1.13;;;;;;;6.86;100.00;147893.03;5016143;28;20215;-59
2024/01/04 02:17:35;;;;;;;3.27;0.67;;;;;;;6.87;100.00;147895.50;5004716;28;20227;-59
2024/01/04 02:20:02;;;;;;;4.80;0.60;;;;;;;6.91;100.00;147904.19;5018473;28;20212;-58
2024/01/04 02:22:30;;;;;;;6.83;0.70;;;;;;;6.94;100.00;147911.63;5005215;28;20251;-58
2024/01/04 02:24:58;;;;;;;6.47;0.50;;;;;;;6.93;100.00;147909.16;4999438;28;20608;-58
2024/01/04 02:27:24;;;;;;;3.83;0.57;;;;;;;6.90;100.00;147902.97;5003942;28;20228;-59
2024/01/04 02:29:51;;;;;;;6.73;1.03;;;;;;;6.98;100.00;147920.34;5018019;28;20240;-58
2024/01/04 02:32:18;;;;;;;1.10;0.30;;;;;;;7.07;100.00;147942.72;5006475;28;20231;-58
2024/01/04 02:34:44;;;;;;;8.80;1.07;;;;;;;7.08;100.00;147945.22;5026222;28;20234;-59
2024/01/04 02:37:11;;;;;;;2.13;0.50;;;;;;;7.16;100.00;147963.81;5023229;28;20264;-59
2024/01/04 02:39:38;;;;;;;4.57;0.50;;;;;;;7.25;100.00;147986.19;5007377;28;20239;-59
2024/01/04 02:42:06;;;;;;;2.30;0.47;;;;;;;7.27;100.00;147989.94;5001147;28;20227;-59
2024/01/04 02:44:32;;;;;;;4.90;0.57;;;;;;;7.24;100.00;147984.97;5024333;28;20242;-60
2024/01/04 02:46:59;;;;;;;4.50;0.67;;;;;;;7.35;100.00;148011.06;5005880;28;20239;-59
2024/01/04 02:49:26;;;;;;;1.27;0.30;;;;;;;7.38;100.00;148017.28;5024587;28;20240;-59
2024/01/04 02:51:52;;;;;;;2.53;0.57;;;;;;;7.39;100.00;148021.00;5006098;28;20220;-59
2024/01/04 02:54:19;;;;;;;0.90;0.30;;;;;;;7.36;100.00;148013.53;5024905;28;20236;-60
2024/01/04 02:56:45;;;;;;;1.33;0.33;;;;;;;7.31;100.00;148001.09;5007836;28;20223;-59
2024/01/04 02:59:13;;;;;;;3.00;0.40;;;;;;;7.24;100.00;147984.97;5021453;28;20694;-59
2024/01/04 03:01:41;;;;;;;5.23;0.67;;;;;;;7.38;100.00;148017.28;5026528;28;20464;-59
2024/01/04 03:04:08;;;;;;;2.60;0.50;;;;;;;7.41;100.00;148023.47;5003364;28;20243;-59
2024/01/04 03:06:34;;;;;;;1.97;0.40;;;;;;;7.41;100.00;148023.47;5007467;28;20219;-59
2024/01/04 03:09:01;;;;;;;3.63;0.70;;;;;;;7.42;100.00;148027.19;5021296;28;20227;-59
2024/01/04 03:11:27;;;;;;;4.23;0.57;;;;;;;7.51;100.00;148048.34;5024860;28;20579;-60
2024/01/04 03:13:54;;;;;;;3.83;0.53;;;;;;;7.56;100.00;148060.78;5019894;28;20222;-59
2024/01/04 03:16:23;;;;;;;3.00;0.50;;;;;;;7.58;100.00;148065.75;5017383;28;20243;-59
2024/01/04 03:18:50;;;;;;;3.30;0.60;;;;;;;7.63;100.00;148076.91;5012432;28;20702;-60
2024/01/04 03:21:17;;;;;;;2.93;0.40;;;;;;;7.60;100.00;148069.44;5024958;28;20240;-59
2024/01/04 03:23:44;;;;;;;3.83;0.50;;;;;;;7.63;100.00;148076.91;5024789;28;20235;-58
2024/01/04 03:26:10;;;;;;;3.53;0.40;;;;;;;7.68;100.00;148089.34;5022447;28;20231;-59
2024/01/04 03:28:37;;;;;;;2.83;0.30;;;;;;;7.62;100.00;148075.69;5024907;28;20227;-59
2024/01/04 03:31:04;;;;;;;4.63;0.57;;;;;;;7.71;100.00;148095.56;5020787;28;20575;-58
2024/01/04 03:33:32;;;;;;;4.23;0.67;;;;;;;7.64;100.00;148079.38;5007935;28;20239;-59
2024/01/04 03:35:59;;;;;;;4.20;0.67;;;;;;;7.58;100.00;148064.47;5021948;28;20219;-59
2024/01/04 03:38:25;;;;;;;2.13;0.37;;;;;;;7.61;100.00;148071.94;5025505;28;20236;-59
2024/01/04 03:40:52;;;;;;;3.83;0.53;;;;;;;7.64;100.00;148079.38;5022382;28;20239;-59
2024/01/04 03:43:18;;;;;;;3.90;0.60;;;;;;;7.62;100.00;148074.41;5025115;28;20239;-60
2024/01/04 03:45:45;;;;;;;2.53;0.77;;;;;;;7.65;100.00;148081.88;5026207;28;20714;-59
2024/01/04 03:48:12;;;;;;;2.67;0.50;;;;;;;7.73;100.00;148100.56;5023556;28;20239;-59
2024/01/04 03:50:40;;;;;;;4.13;0.50;;;;;;;7.68;100.00;148089.34;5025801;28;20253;-59
2024/01/04 03:53:06;;;;;;;1.90;0.50;;;;;;;7.75;100.00;148106.75;5021629;28;20236;-59
2024/01/04 03:55:33;;;;;;;2.20;0.60;;;;;;;7.66;100.00;148085.63;5025106;28;20247;-59
2024/01/04 03:57:59;;;;;;;2.53;0.70;;;;;;;7.60;100.00;148069.44;5022272;28;20278;-58
2024/01/04 04:00:27;;;;;;;2.80;0.80;;;;;;;7.67;100.00;148088.13;5024458;28;20227;-59
2024/01/04 04:02:54;;;;;;;3.10;0.50;;;;;;;7.72;100.00;148098.06;5022106;28;20239;-59
2024/01/04 04:05:21;;;;;;;4.03;0.70;;;;;;;7.69;100.00;148091.81;5025089;28;20238;-59
2024/01/04 04:07:48;;;;;;;4.27;0.70;;;;;;;7.64;100.00;148079.38;5019143;28;20235;-59
2024/01/04 04:10:16;;;;;;;2.40;0.50;;;;;;;7.81;98.92;148121.66;5012602;28;20723;-59
2024/01/04 04:12:42;;;;;;;5.90;0.60;;;;;;;7.80;100.00;148119.16;5023894;28;20224;-57
2024/01/04 04:15:09;;;;;;;3.77;0.57;;;;;;;7.83;99.42;148125.41;5019909;28;20243;-59
2024/01/04 04:17:36;;;;;;;2.70;0.90;;;;;;;7.82;100.00;148124.16;5024497;28;20687;-59
2024/01/04 04:20:03;;;;;;;1.60;0.40;;;;;;;7.86;100.00;148132.88;5021742;28;20724;-59
2024/01/04 04:22:30;;;;;;;4.40;0.60;;;;;;;7.90;97.66;148142.81;5024789;28;20247;-59
2024/01/04 04:24:58;;;;;;;1.47;0.57;;;;;;;7.86;99.54;148132.88;5021747;28;20265;-59
2024/01/04 04:27:26;;;;;;;3.43;0.50;;;;;;;7.91;96.65;148144.03;5025270;28;20238;-60
2024/01/04 04:29:53;;;;;;;3.10;0.50;;;;;;;7.91;95.90;148144.03;5020886;28;20232;-59
2024/01/04 04:32:20;;;;;;;4.23;0.50;;;;;;;7.96;95.45;148157.69;5221730;23;20240;-59
2024/01/04 04:34:47;;;;;;;3.03;0.50;;;;;;;7.97;94.68;148160.19;5001957;28;20231;-59
2024/01/04 04:37:14;;;;;;;4.47;0.80;;;;;;;7.99;94.94;148163.94;5004203;28;20228;-59
2024/01/04 04:39:41;;;;;;;4.20;0.60;;;;;;;7.97;94.50;148160.19;5004655;28;20232;-59
2024/01/04 04:42:12;;;;;;;4.03;0.50;;;;;;;7.89;96.38;148140.34;4986557;28;20237;-59
2024/01/04 04:44:39;;;;;;;3.07;0.40;;;;;;;7.85;98.66;148129.13;4979766;28;20584;-59
2024/01/04 04:47:06;;;;;;;2.10;0.47;;;;;;;7.75;99.10;148105.53;4978492;28;20240;-59
2024/01/04 04:49:32;;;;;;;2.00;0.50;;;;;;;7.72;100.00;148099.28;4978823;28;20712;-59
2024/01/04 04:51:59;;;;;;;4.60;0.60;;;;;;;7.62;100.00;148074.41;4974338;28;20212;-58
2024/01/04 04:54:25;;;;;;;2.77;0.37;;;;;;;7.63;100.00;148076.91;4978041;28;20237;-58
2024/01/04 04:56:52;;;;;;;1.97;0.40;;;;;;;7.63;100.00;148078.16;4976005;28;20225;-59
2024/01/04 04:59:20;;;;;;;3.47;0.30;;;;;;;7.59;100.00;148068.22;4981396;28;20237;-58
2024/01/04 05:01:46;;;;;;;4.63;0.63;;;;;;;7.56;100.00;148059.50;4977174;28;20217;-58
2024/01/04 05:04:13;;;;;;;2.67;0.30;;;;;;;7.56;100.00;148059.50;4973700;28;20229;-58
2024/01/04 05:06:40;;;;;;;3.37;0.73;;;;;;;7.60;99.60;148069.44;4978333;28;20229;-57
2024/01/04 05:09:07;;;;;;;3.03;0.47;;;;;;;7.60;100.00;148070.72;4977102;28;20790;-59
2024/01/04 05:11:33;;;;;;;4.00;0.70;;;;;;;7.58;100.00;148064.47;4977320;28;20236;-60
2024/01/04 05:14:02;;;;;;;1.97;0.60;;;;;;;7.58;99.72;148064.47;4974570;28;20231;-58
2024/01/04 05:16:30;;;;;;;5.07;0.60;;;;;;;7.56;100.00;148059.50;4977353;28;20621;-59
2024/01/04 05:18:56;;;;;;;2.40;0.73;;;;;;;7.64;98.40;148079.38;4973857;28;20225;-59
2024/01/04 05:21:23;;;;;;;4.70;0.77;;;;;;;7.74;96.07;148104.25;4980350;28;20229;-58
2024/01/04 05:23:50;;;;;;;1.33;0.67;;;;;;;7.75;96.12;148105.53;4974974;28;20226;-59
2024/01/04 05:26:21;;;;;;;5.67;0.87;;;;;;;7.76;95.71;148109.22;4978244;28;20233;-59
2024/01/04 05:28:48;;;;;;;2.87;0.50;;;;;;;7.76;97.92;148109.22;4977215;28;20601;-58
2024/01/04 05:31:17;;;;;;;3.23;0.80;;;;;;;7.78;96.29;148114.19;4978585;28;20237;-58
2024/01/04 05:33:45;;;;;;;3.27;0.63;;;;;;;7.79;95.02;148116.69;4977299;28;20228;-58
2024/01/04 05:36:12;;;;;;;3.17;0.60;;;;;;;7.83;96.11;148126.63;4974880;28;20231;-58
2024/01/04 05:38:39;;;;;;;4.03;0.60;;;;;;;7.79;96.14;148115.47;4979417;28;20308;-58
2024/01/04 05:41:05;;;;;;;4.83;0.60;;;;;;;7.76;96.34;148109.22;4974606;28;20234;-58
2024/01/04 05:43:33;;;;;;;4.73;1.20;;;;;;;7.77;96.19;148110.50;4978065;28;20244;-59
2024/01/04 05:46:02;;;;;;;6.53;0.73;;;;;;;7.77;96.64;148110.50;4973564;28;20225;-58
2024/01/04 05:48:29;;;;;;;4.60;0.70;;;;;;;7.88;92.64;148136.56;4977350;28;20235;-58
2024/01/04 05:50:57;;;;;;;4.50;0.83;;;;;;;7.85;95.05;148130.38;4976328;28;20237;-59
2024/01/04 05:53:23;;;;;;;6.17;1.07;;;;;;;7.85;94.46;148129.13;4979182;28;20252;-59
2024/01/04 05:55:50;;;;;;;5.53;0.80;;;;;;;7.81;95.10;148121.66;4977412;28;20229;-58
2024/01/04 05:58:16;;;;;;;8.20;0.87;;;;;;;7.85;94.27;148129.13;4977435;28;20237;-61
2024/01/04 06:00:43;;;;;;;7.27;0.83;;;;;;;7.82;94.02;148122.94;4979529;28;20631;-59
2024/01/04 06:03:10;;;;;;;2.93;0.80;;;;;;;7.83;92.89;148126.63;4975275;28;20230;-59
2024/01/04 06:05:36;;;;;;;4.07;0.70;;;;;;;7.83;93.75;148126.63;4979092;28;20226;-58
2024/01/04 06:08:05;;;;;;;5.40;1.00;;;;;;;7.85;93.81;148129.13;4977294;28;20232;-59
2024/01/04 06:10:31;;;;;;;3.73;0.80;;;;;;;7.88;90.90;148137.84;4984271;28;20736;-58
2024/01/04 06:12:58;;;;;;;4.87;0.70;;;;;;;7.92;91.81;148147.78;4989981;28;20229;-59
2024/01/04 06:15:25;;;;;;;5.13;0.77;;;;;;;7.91;92.11;148144.03;4982271;28;20236;-58
2024/01/04 06:17:51;;;;;;;3.67;0.67;;;;;;;7.97;90.96;148158.97;4978456;28;20241;-59
2024/01/04 06:20:18;;;;;;;4.00;0.97;;;;;;;7.98;91.31;148161.44;4981792;28;20221;-61
2024/01/04 06:22:44;;;;;;;6.43;1.67;;;;;;;7.96;91.63;148156.47;4981997;28;20237;-58
2024/01/04 06:25:12;;;;;;;6.97;1.20;;;;;;;7.99;90.64;148163.94;4978388;28;20233;-58
2024/01/04 06:27:39;;;;;;;7.80;0.97;;;;;;;7.93;91.14;148149.00;4981344;28;20252;-58
2024/01/04 06:30:07;;;;;;;5.67;0.97;;;;;;;7.93;90.21;148149.00;4979176;28;20719;-58
2024/01/04 06:32:34;;;;;;;7.73;1.10;;;;;;;7.92;90.67;148147.78;4983480;28;20225;-58
2024/01/04 06:35:00;;;;;;;7.60;1.17;;;;;;;7.85;91.36;148130.38;4977919;28;20233;-58
2024/01/04 06:37:28;;;;;;;4.17;1.07;;;;;;;7.83;93.29;148125.41;4981897;28;20230;-58
2024/01/04 06:39:55;;;;;;;3.77;0.90;;;;;;;7.83;93.64;148126.63;4978946;28;20230;-58
2024/01/04 06:42:23;;;;;;;4.50;0.80;;;;;;;7.78;93.28;148112.97;4981569;28;20228;-58
2024/01/04 06:44:49;;;;;;;5.27;1.00;;;;;;;7.66;96.24;148084.38;4978160;28;20237;-58
2024/01/04 06:47:16;;;;;;;6.23;0.87;;;;;;;7.69;94.95;148091.81;4980149;28;20281;-57
2024/01/04 06:49:42;;;;;;;4.93;1.00;;;;;;;7.66;94.61;148084.38;4980277;28;20241;-57
2024/01/04 06:52:10;;;;;;;5.57;0.80;;;;;;;7.75;91.12;148105.53;4975878;28;20543;-58
2024/01/04 06:54:37;;;;;;;4.83;1.20;;;;;;;7.78;93.34;148112.97;4977928;28;20230;-64
2024/01/04 06:57:06;;;;;;;6.00;1.27;;;;;;;7.72;92.33;148098.06;4979872;28;20224;-59
2024/01/04 06:59:34;;;;;;;6.77;0.93;;;;;;;7.67;92.80;148086.84;4973314;28;20262;-59
2024/01/04 07:02:00;;;;;;;9.38;1.23;;;;;;;7.66;93.13;148084.38;4980782;28;20916;-57
2024/01/04 07:04:27;;;;;;;3.27;0.93;;;;;;;7.67;93.98;148086.84;4977998;28;20237;-59
2024/01/04 07:06:54;;;;;;;8.20;1.20;;;;;;;7.66;93.69;148085.63;4979552;28;20238;-57
2024/01/04 07:09:20;;;;;;;5.23;1.00;;;;;;;7.66;93.51;148084.38;4971040;28;20234;-58
2024/01/04 07:11:47;;;;;;;7.27;1.20;;;;;;;7.64;94.08;148080.66;4981171;28;20234;-58
2024/01/04 07:14:14;;;;;;;7.27;1.23;;;;;;;7.62;92.82;148075.69;4979370;28;20233;-58
2024/01/04 07:16:46;;;;;;;5.47;1.57;;;;;;;7.65;90.91;148083.16;4980808;28;20314;-58
2024/01/04 07:19:12;;;;;;;64.30;27.57;;;;;;;7.66;92.28;148085.63;4980852;28;20236;-57
2024/01/04 07:21:40;;;;;;;6.37;1.10;;;;;;;7.72;91.51;148098.06;4979879;28;20696;-58
2024/01/04 07:24:06;;;;;;;5.27;1.73;;;;;;;7.68;91.02;148089.34;4973940;28;20804;-57
2024/01/04 07:26:33;;;;;;;8.03;1.40;;;;;;;7.66;91.26;148085.63;4980223;28;20222;-57
2024/01/04 07:29:00;;;;;;;9.10;1.60;;;;;;;7.73;90.59;148101.75;4978540;28;20763;-57
2024/01/04 07:31:26;;;;;;;12.73;1.27;;;;;;;7.79;89.73;148115.47;4977216;28;20237;-57
2024/01/04 07:33:54;;;;;;;13.63;5.30;;;;;;;7.75;92.01;148106.75;4977525;28;20238;-58
2024/01/04 07:36:21;;;;;;;8.07;1.30;;;;;;;7.77;90.12;148111.72;4979997;28;20232;-57
2024/01/04 07:38:48;;;;;;;8.80;1.30;;;;;;;7.78;89.81;148114.19;4978430;28;20243;-57
2024/01/04 07:41:14;;;;;;;8.70;1.70;;;;;;;7.78;90.25;148112.97;4981043;28;20712;-58
2024/01/04 07:43:41;;;;;;;14.97;8.43;;;;;;;7.80;88.50;148119.16;4980637;28;20770;-57
2024/01/04 07:46:07;;;;;;;5.40;1.07;;;;;;;7.77;89.98;148111.72;4979596;28;20237;-56
2024/01/04 07:48:34;;;;;;;7.77;1.50;;;;;;;7.80;89.34;148117.97;4978630;28;20229;-58
2024/01/04 07:51:02;;;;;;;8.90;0.80;;;;;;;7.80;90.36;148119.16;4972833;28;20240;-58
2024/01/04 07:53:29;;;;;;;5.67;1.00;;;;;;;7.79;90.46;148116.69;4977493;28;20233;-57
2024/01/04 07:55:56;;;;;;;4.87;0.80;;;;;;;7.81;90.38;148120.44;4977463;28;20317;-58
2024/01/04 07:58:23;;;;;;;5.87;1.50;;;;;;;7.81;91.31;148120.44;4982829;28;20246;-58
2024/01/04 08:00:49;;;;;;;8.30;2.30;;;;;;;7.76;91.09;148109.22;4977591;28;20240;-58
2024/01/04 08:03:16;;;;;;;6.00;0.90;;;;;;;7.78;92.10;148114.19;4980164;28;20233;-57
2024/01/04 08:05:43;;;;;;;4.03;1.00;;;;;;;7.85;89.96;148129.13;4979217;28;20252;-58
2024/01/04 08:08:11;;;;;;;9.50;1.37;;;;;;;7.83;92.07;148126.63;4976268;28;20245;-57
2024/01/04 08:10:37;;;;;;;5.27;0.80;;;;;;;7.77;92.51;148111.72;4979914;28;20222;-57
2024/01/04 08:13:05;;;;;;;7.93;1.90;;;;;;;7.79;92.01;148115.47;4975040;28;20241;-57
2024/01/04 08:15:33;;;;;;;4.47;1.20;;;;;;;7.86;89.02;148131.59;4977393;28;20244;-58
2024/01/04 08:18:02;;;;;;;4.37;1.00;;;;;;;7.87;87.66;148134.09;4979144;28;20331;-58
2024/01/04 08:20:28;;;;;;;4.37;0.80;;;;;;;7.81;87.95;148121.66;4979799;28;20284;-57
2024/01/04 08:22:55;;;;;;;7.07;1.67;;;;;;;7.74;88.53;148104.25;4977584;28;20217;-56
2024/01/04 08:25:23;;;;;;;4.80;0.70;;;;;;;7.83;86.60;148125.41;4979846;28;20236;-57
2024/01/04 08:27:50;;;;;;;2.53;1.27;;;;;;;7.79;86.32;148116.69;4977323;28;20323;-57
2024/01/04 08:30:16;;;;;;;5.57;1.10;;;;;;;7.81;87.03;148121.66;4975934;28;20263;-58
2024/01/04 08:32:43;;;;;;;5.67;1.13;;;;;;;7.85;87.67;148130.38;4979020;28;20224;-57
2024/01/04 08:35:10;;;;;;;7.93;0.77;;;;;;;7.87;86.79;148134.09;4974180;28;20240;-57
2024/01/04 08:37:36;;;;;;;8.87;1.07;;;;;;;7.79;89.31;148116.69;4977348;28;20688;-58
2024/01/04 08:40:04;;;;;;;5.97;0.80;;;;;;;7.88;89.75;148136.56;4976428;28;20272;-57
2024/01/04 08:42:32;;;;;;;9.90;1.50;;;;;;;7.87;89.63;148134.09;4979141;28;21119;-57
2024/01/04 08:44:59;;;;;;;4.57;1.33;;;;;;;7.90;90.69;148142.81;4975504;28;20232;-57
2024/01/04 08:47:26;;;;;;;7.43;1.00;;;;;;;7.87;91.33;148134.09;4978388;28;20256;-57
2024/01/04 08:49:53;;;;;;;8.37;1.20;;;;;;;7.91;87.69;148144.03;4978196;28;20229;-58
2024/01/04 08:52:19;;;;;;;4.83;1.10;;;;;;;7.89;88.90;148140.34;4976502;28;20244;-57
2024/01/04 08:54:46;;;;;;;8.30;2.33;;;;;;;7.98;89.50;148162.66;4978539;28;20236;-57
2024/01/04 08:57:14;;;;;;;8.97;2.20;;;;;;;7.93;87.31;148149.00;4977446;28;20249;-58
2024/01/04 08:59:43;;;;;;;5.17;1.10;;;;;;;7.97;86.55;148158.97;4976350;28;20578;-58
2024/01/04 09:02:12;;;;;;;13.00;3.37;;;;;;;8.06;87.11;148180.06;4976108;28;20225;-57
2024/01/04 09:04:38;;;;;;;6.27;0.93;;;;;;;8.15;86.36;148201.22;4978738;28;20241;-57
2024/01/04 09:07:06;;;;;;;6.50;1.33;;;;;;;8.18;89.29;148209.91;4976748;28;20221;-58
2024/01/04 09:09:33;;;;;;;8.73;1.50;;;;;;;8.25;85.88;148226.09;4979579;28;20589;-58
2024/01/04 09:11:59;;;;;;;10.93;0.83;;;;;;;8.27;83.87;148232.31;4974069;28;20252;-56
2024/01/04 09:14:26;;;;;;;7.63;1.53;;;;;;;8.27;85.40;148232.31;4976254;28;20234;-57
2024/01/04 09:16:54;;;;;;;8.90;1.73;;;;;;;8.14;86.94;148199.97;4975377;28;20240;-58
2024/01/04 09:19:21;;;;;;;11.37;1.50;;;;;;;8.20;90.55;148214.91;4968449;28;20237;-58
2024/01/04 09:21:49;;;;;;;12.70;1.60;;;;;;;8.07;94.14;148182.56;4976115;28;20233;-57
2024/01/04 09:24:17;;;;;;;7.53;1.40;;;;;;;8.07;92.25;148182.56;4977370;28;20237;-58
2024/01/04 09:26:44;;;;;;;11.53;2.93;;;;;;;7.80;93.10;148119.16;4978718;28;20248;-58
2024/01/04 09:29:13;;;;;;;3.53;0.90;;;;;;;7.75;94.46;148105.53;4974084;28;20228;-57
2024/01/04 09:31:40;;;;;;;6.67;1.53;;;;;;;7.47;100.00;148039.63;4977402;28;20231;-58
2024/01/04 09:34:09;;;;;;;4.87;1.13;;;;;;;7.45;100.00;148034.63;4973920;28;23133;-58
2024/01/04 09:36:35;;;;;;;5.03;0.93;;;;;;;7.40;100.00;148022.25;4978438;28;20236;-57
2024/01/04 09:39:03;;;;;;;66.10;27.73;;;;;;;7.15;100.00;147962.59;4972700;28;20221;-57
2024/01/04 09:41:32;;;;;;;9.13;2.03;;;;;;;7.09;100.00;147948.91;4980476;28;20624;-57
2024/01/04 09:44:03;;;;;;;72.57;26.80;;;;;;;7.05;100.00;147937.75;4978208;28;20248;-56
2024/01/04 09:46:34;;;;;;;9.67;1.83;;;;;;;6.91;100.00;147905.44;4981757;28;20629;-58
2024/01/04 09:49:01;;;;;;;8.43;1.77;;;;;;;6.84;100.00;147886.84;4980512;28;20232;-56
2024/01/04 09:51:30;;;;;;;8.50;1.40;;;;;;;6.78;100.00;147873.13;4982540;28;20240;-58
2024/01/04 09:53:57;;;;;;;4.07;1.30;;;;;;;6.63;100.00;147838.34;4978904;28;20213;-56
2024/01/04 09:56:25;;;;;;;7.10;1.80;;;;;;;6.71;100.00;147855.75;4985092;28;20225;-59
2024/01/04 09:58:53;;;;;;;7.10;1.20;;;;;;;6.62;100.00;147835.88;4977403;28;20234;-58
2024/01/04 10:01:21;;;;;;;9.03;1.53;;;;;;;6.71;100.00;147857.03;4982055;28;20225;-57
2024/01/04 10:03:49;;;;;;;6.33;1.60;;;;;;;6.77;100.00;147870.66;4975982;28;20287;-58
2024/01/04 10:06:23;;;;;;;6.47;1.90;;;;;;;6.88;100.00;147898.00;4980950;28;20233;-51
2024/01/04 10:08:56;;;;;;;7.00;1.30;;;;;;;7.14;100.00;147960.13;4977025;28;20225;-52
2024/01/04 10:11:29;;;;;;;9.33;1.67;;;;;;;7.19;100.00;147972.53;4993727;28;20248;-61
2024/01/04 10:13:56;;;;;;;8.23;1.33;;;;;;;7.24;100.00;147984.97;4977877;28;20454;-58
2024/01/04 10:16:24;;;;;;;10.70;1.70;;;;;;;7.01;100.00;147927.81;4978385;28;20852;-57
2024/01/04 10:18:52;;;;;;;6.93;1.30;;;;;;;6.98;100.00;147920.34;4978219;28;20639;-58
2024/01/04 10:21:18;;;;;;;12.23;1.40;;;;;;;7.05;100.00;147937.75;4981175;28;20700;-57
2024/01/04 10:23:45;;;;;;;7.13;1.20;;;;;;;7.04;100.00;147935.28;4981346;28;20233;-57
2024/01/04 10:26:17;;;;;;;9.57;4.37;;;;;;;7.06;100.00;147940.25;4977641;28;20236;-57
2024/01/04 10:28:44;;;;;;;10.27;1.77;;;;;;;7.02;100.00;147930.28;4980343;28;20238;-58
2024/01/04 10:31:11;;;;;;;7.20;1.43;;;;;;;7.02;100.00;147930.28;4977760;28;20224;-57
2024/01/04 10:33:38;;;;;;;5.10;1.30;;;;;;;7.03;100.00;147932.78;4979768;28;20230;-56
2024/01/04 10:36:09;;;;;;;6.67;1.50;;;;;;;7.05;100.00;147937.75;4978938;28;21026;-57
2024/01/04 10:38:36;;;;;;;9.10;3.53;;;;;;;7.06;100.00;147940.25;4980903;28;20272;-56
2024/01/04 10:41:04;;;;;;;48.83;24.73;;;;;;;6.97;100.00;147917.88;4980472;28;20336;-58
2024/01/04 10:43:32;;;;;;;19.70;10.77;;;;;;;7.00;100.00;147925.31;4977840;28;20288;-57
2024/01/04 10:46:03;;;;;;;16.93;5.87;;;;;;;6.97;100.00;147917.88;4980868;28;20237;-57
2024/01/04 10:48:30;;;;;;;12.33;5.00;;;;;;;6.97;100.00;147919.09;4981987;28;20234;-56
2024/01/04 10:51:03;;;;;;;7.27;2.10;;;;;;;6.86;100.00;147891.81;4978868;28;20217;-57
2024/01/04 10:53:31;;;;;;;8.60;2.17;;;;;;;6.93;100.00;147909.16;4977307;28;20269;-58
2024/01/04 10:55:59;;;;;;;9.30;2.67;;;;;;;6.89;100.00;147899.25;4979928;28;20233;-57
2024/01/04 10:58:26;;;;;;;15.33;3.93;;;;;;;7.01;100.00;147927.81;4978814;28;20370;-58
2024/01/04 11:00:55;;;;;;;14.07;4.30;;;;;;;7.20;100.00;147975.03;4979759;28;20221;-58
2024/01/04 11:03:23;;;;;;;6.83;1.63;;;;;;;7.36;100.00;148012.31;4980140;28;20253;-57
2024/01/04 11:05:51;;;;;;;8.07;1.20;;;;;;;7.39;100.00;148019.78;4979620;28;20233;-57
2024/01/04 11:08:18;;;;;;;8.80;1.90;;;;;;;7.37;100.00;148014.81;4978403;28;20222;-57
2024/01/04 11:10:46;;;;;;;7.50;2.87;;;;;;;7.43;100.00;148029.66;4978983;28;20249;-57
2024/01/04 11:13:13;;;;;;;12.80;2.92;;;;;;;7.52;100.00;148050.81;4976626;28;20448;-58
2024/01/04 11:15:40;;;;;;;10.67;2.80;;;;;;;7.67;100.00;148086.84;4981203;28;20229;-57
2024/01/04 11:18:30;;;;;;;8.63;1.43;;;;;;;7.83;100.00;148126.63;4977896;28;20230;-58
2024/01/04 11:21:07;;;;;;;7.57;1.37;;;;;;;8.07;100.00;148183.81;4980186;28;20237;-58
2024/01/04 11:23:51;;;;;;;7.03;1.40;;;;;;;8.08;100.00;148185.03;4980134;28;20238;-58
2024/01/04 11:26:24;;;;;;;10.93;5.10;;;;;;;8.26;100.00;148228.59;4981384;28;20310;-58